createdAt,value
2023-04-13T00:05:18.613Z,5.70
2023-04-13T00:11:20.532Z,5.70
2023-04-13T00:17:22.753Z,5.70
2023-04-13T00:23:24.577Z,5.80
2023-04-13T00:29:26.410Z,5.80
2023-04-13T00:35:28.143Z,5.80
2023-04-13T00:41:30.099Z,5.80
2023-04-13T00:47:36.854Z,5.60
2023-04-13T00:53:38.873Z,5.60
2023-04-13T00:59:40.721Z,5.40
2023-04-13T01:06:07.744Z,5.50
2023-04-13T01:12:19.083Z,5.40
2023-04-13T01:18:23.544Z,5.40
2023-04-13T01:24:53.589Z,5.40
2023-04-13T01:30:57.711Z,5.50
2023-04-13T01:37:04.929Z,5.40
2023-04-13T01:43:07.597Z,5.50
2023-04-13T01:49:11.076Z,5.50
2023-04-13T01:55:14.127Z,5.50
2023-04-13T02:01:16.277Z,5.60
2023-04-13T02:07:18.935Z,5.80
2023-04-13T02:13:21.087Z,5.90
2023-04-13T02:19:23.962Z,6.00
2023-04-13T02:25:28.048Z,6.10
2023-04-13T02:31:32.011Z,6.00
2023-04-13T02:37:34.117Z,6.10
2023-04-13T02:43:35.917Z,6.20
2023-04-13T02:49:37.715Z,6.30
2023-04-13T02:55:39.961Z,6.30
2023-04-13T03:01:42.334Z,6.10
2023-04-13T03:07:45.421Z,6.00
2023-04-13T03:13:47.218Z,6.00
2023-04-13T03:19:49.853Z,6.00
2023-04-13T03:25:51.627Z,6.00
2023-04-13T03:31:53.436Z,5.90
2023-04-13T03:37:56.164Z,5.90
2023-04-13T03:43:58.560Z,5.80
2023-04-13T03:50:00.791Z,5.90
2023-04-13T03:56:02.678Z,6.00
2023-04-13T04:02:04.823Z,6.00
2023-04-13T04:08:06.816Z,6.00
2023-04-13T04:14:08.644Z,6.00
2023-04-13T04:20:10.914Z,6.10
2023-04-13T04:26:14.020Z,6.20
2023-04-13T04:32:18.639Z,6.30
2023-04-13T04:38:22.152Z,6.30
2023-04-13T04:44:25.409Z,6.40
2023-04-13T04:50:27.718Z,6.40
2023-04-13T04:56:29.796Z,6.50
2023-04-13T05:02:32.060Z,6.60
2023-04-13T05:08:34.602Z,6.60
2023-04-13T05:14:37.120Z,6.70
2023-04-13T05:20:39.180Z,6.70
2023-04-13T05:26:42.475Z,6.70
2023-04-13T05:32:44.803Z,6.80
2023-04-13T05:38:46.742Z,6.80
2023-04-13T05:44:48.562Z,6.70
2023-04-13T05:50:50.413Z,6.70
2023-04-13T05:56:52.191Z,6.60
2023-04-13T06:02:54.839Z,6.70
2023-04-13T06:08:57.262Z,6.80
2023-04-13T06:14:59.291Z,6.80
2023-04-13T06:21:01.203Z,6.90
2023-04-13T06:27:04.556Z,7.10
2023-04-13T06:33:08.938Z,7.20
2023-04-13T06:39:11.700Z,7.20
2023-04-13T06:45:13.859Z,7.20
2023-04-13T06:51:18.923Z,7.20
2023-04-13T06:57:20.864Z,7.10
2023-04-13T07:03:22.892Z,7.10
2023-04-13T07:09:24.813Z,7.00
2023-04-13T07:15:26.927Z,6.90
2023-04-13T07:21:28.936Z,7.10
2023-04-13T07:27:30.774Z,7.10
2023-04-13T07:33:32.661Z,7.30
2023-04-13T07:39:35.339Z,7.60
2023-04-13T07:45:37.765Z,8.00
2023-04-13T07:51:43.748Z,8.00
2023-04-13T07:57:46.186Z,8.50
2023-04-13T08:03:48.257Z,8.60
2023-04-13T08:09:52.514Z,8.30
2023-04-13T08:15:57.284Z,7.90
2023-04-13T08:21:59.798Z,7.70
2023-04-13T08:28:01.592Z,7.70
2023-04-13T08:34:04.720Z,8.40
2023-04-13T08:40:07.967Z,9.00
2023-04-13T08:46:09.874Z,9.60
2023-04-13T08:52:14.429Z,9.80
2023-04-13T08:58:25.227Z,9.90
2023-04-13T09:04:30.556Z,10.30
2023-04-13T09:10:34.188Z,10.40
2023-04-13T09:16:41.233Z,10.10
2023-04-13T09:22:43.716Z,9.80
2023-04-13T09:28:51.894Z,9.70
2023-04-13T09:34:59.716Z,10.20
2023-04-13T09:41:01.946Z,9.80
2023-04-13T09:47:04.796Z,10.10
2023-04-13T09:53:09.374Z,10.70
2023-04-13T09:59:12.741Z,10.50
2023-04-13T10:05:17.175Z,10.40
2023-04-13T10:11:19.313Z,11.10
2023-04-13T10:17:35.212Z,10.70
2023-04-13T10:23:40.437Z,10.50
2023-04-13T10:29:42.500Z,10.10
2023-04-13T10:35:57.444Z,10.10
2023-04-13T10:42:03.570Z,10.10
2023-04-13T10:48:08.826Z,10.10
2023-04-13T10:54:12.799Z,9.80
2023-04-13T11:00:27.332Z,9.50
2023-04-13T11:06:40.290Z,9.40
2023-04-13T11:12:52.875Z,9.50
2023-04-13T11:19:05.501Z,9.80
2023-04-13T11:25:10.021Z,10.40
2023-04-13T11:31:12.819Z,10.50
2023-04-13T11:37:15.212Z,11.10
2023-04-13T11:43:17.647Z,11.50
2023-04-13T11:49:22.198Z,11.50
2023-04-13T11:55:25.275Z,11.30
2023-04-13T12:01:32.379Z,11.00
2023-04-13T12:07:40.990Z,10.70
2023-04-13T12:14:06.499Z,10.80
2023-04-13T12:20:16.287Z,11.00
2023-04-13T12:26:59.416Z,11.00
2023-04-13T12:32:48.511Z,11.40
2023-04-13T12:38:50.409Z,11.50
2023-04-13T12:44:52.405Z,12.20
2023-04-13T12:50:55.939Z,12.10
2023-04-13T12:56:57.931Z,11.60
2023-04-13T13:03:12.710Z,11.10
2023-04-13T13:09:15.456Z,11.00
2023-04-13T13:15:18.044Z,11.20
2023-04-13T13:21:23.228Z,11.30
2023-04-13T13:33:33.162Z,13.20
2023-04-13T13:39:35.874Z,13.40
2023-04-13T13:45:37.970Z,13.50
2023-04-13T13:51:39.858Z,12.90
2023-04-13T13:57:41.748Z,12.80
2023-04-13T14:03:45.052Z,13.20
2023-04-13T14:09:50.512Z,13.60
2023-04-13T14:15:52.891Z,13.00
2023-04-13T14:21:57.001Z,12.50
2023-04-13T14:27:59.459Z,12.40
2023-04-13T14:34:01.316Z,12.30
2023-04-13T14:40:11.934Z,12.80
2023-04-13T14:46:15.687Z,12.70
2023-04-13T14:52:19.294Z,12.90
2023-04-13T14:58:21.618Z,12.20
2023-04-13T15:04:23.990Z,12.10
2023-04-13T15:10:28.373Z,11.80
2023-04-13T15:16:30.571Z,11.50
2023-04-13T15:22:35.882Z,11.00
2023-04-13T15:28:38.008Z,10.70
2023-04-13T15:34:40.729Z,10.70
2023-04-13T15:40:44.086Z,11.00
2023-04-13T15:46:48.202Z,11.10
2023-04-13T15:52:49.975Z,11.30
2023-04-13T15:58:51.969Z,11.50
2023-04-13T16:04:54.279Z,11.80
2023-04-13T16:10:56.427Z,12.60
2023-04-13T16:17:00.284Z,13.20
2023-04-13T16:23:05.032Z,13.30
2023-04-13T16:29:08.130Z,13.60
2023-04-13T16:35:11.118Z,13.70
2023-04-13T16:41:13.332Z,13.10
2023-04-13T16:47:15.697Z,13.00
2023-04-13T16:53:18.686Z,12.40
2023-04-13T16:59:21.375Z,12.20
2023-04-13T17:05:28.276Z,12.60
2023-04-13T17:11:30.486Z,12.60
2023-04-13T17:17:32.302Z,12.70
2023-04-13T17:23:34.645Z,12.40
2023-04-13T17:29:38.251Z,12.40
2023-04-13T17:35:40.445Z,12.10
2023-04-13T17:41:42.630Z,12.00
2023-04-13T17:47:44.740Z,11.80
2023-04-13T17:53:46.950Z,11.50
2023-04-13T17:59:48.952Z,11.00
2023-04-13T18:05:51.065Z,10.50
2023-04-13T18:11:52.863Z,10.10
2023-04-13T18:17:54.793Z,9.90
2023-04-13T18:23:57.058Z,9.60
2023-04-13T18:29:59.277Z,9.30
2023-04-13T18:36:01.471Z,9.10
2023-04-13T18:42:03.708Z,8.90
2023-04-13T18:48:06.565Z,8.60
2023-04-13T18:54:08.626Z,8.30
2023-04-13T19:00:11.497Z,8.00
2023-04-13T19:06:13.589Z,7.90
2023-04-13T19:12:15.681Z,7.60
2023-04-13T19:18:18.265Z,7.50
2023-04-13T19:24:21.558Z,7.50
2023-04-13T19:30:23.388Z,7.40
2023-04-13T19:36:25.922Z,7.30
2023-04-13T19:42:28.682Z,7.40
2023-04-13T19:48:31.060Z,7.30
2023-04-13T19:54:33.306Z,7.10
2023-04-13T20:00:36.430Z,7.00
2023-04-13T20:06:39.188Z,6.90
2023-04-13T20:12:41.092Z,6.90
2023-04-13T20:18:44.111Z,6.80
2023-04-13T20:24:45.966Z,6.50
2023-04-13T20:30:47.779Z,6.50
2023-04-13T20:36:49.769Z,6.70
2023-04-13T20:42:52.068Z,6.50
2023-04-13T20:48:53.932Z,6.20
2023-04-13T20:54:56.419Z,6.00
2023-04-13T21:00:58.763Z,6.20
2023-04-13T21:07:02.440Z,6.20
2023-04-13T21:13:06.829Z,6.30
2023-04-13T21:19:08.634Z,6.40
2023-04-13T21:25:11.004Z,6.50
2023-04-13T21:31:12.923Z,6.50
2023-04-13T21:37:15.017Z,6.50
2023-04-13T21:43:17.069Z,6.30
2023-04-13T21:49:18.950Z,6.40
2023-04-13T21:55:21.090Z,6.30
2023-04-13T22:01:24.036Z,6.20
2023-04-13T22:07:39.074Z,6.10
2023-04-13T22:13:44.078Z,6.10
2023-04-13T22:19:46.238Z,6.10
2023-04-13T22:25:59.102Z,6.10
2023-04-13T22:32:01.310Z,5.90
2023-04-13T22:38:03.797Z,6.00
2023-04-13T22:44:07.296Z,5.90
2023-04-13T22:50:10.290Z,6.10
2023-04-13T22:56:13.234Z,5.90
2023-04-13T23:02:15.191Z,5.80
2023-04-13T23:08:17.232Z,5.60
2023-04-13T23:14:20.878Z,5.50
2023-04-13T23:20:24.541Z,5.40
2023-04-13T23:26:27.238Z,5.50
2023-04-13T23:32:29.139Z,5.70
2023-04-13T23:38:32.227Z,5.70
2023-04-13T23:44:34.410Z,5.60
2023-04-13T23:50:36.254Z,5.70
2023-04-13T23:56:38.685Z,5.80
